sensor_id;sensor_type;location;lat;lon;timestamp;temperature;humidity
32524;DHT22;18965;52.242;20.886;2022-09-03T00:01:00;13.10;62.30
32524;DHT22;18965;52.242;20.886;2022-09-03T00:03:46;13.10;62.30
32524;DHT22;18965;52.242;20.886;2022-09-03T00:06:31;13.00;62.80
32524;DHT22;18965;52.242;20.886;2022-09-03T00:09:11;12.90;62.40
32524;DHT22;18965;52.242;20.886;2022-09-03T00:14:43;12.90;63.00
32524;DHT22;18965;52.242;20.886;2022-09-03T00:17:14;12.80;62.80
32524;DHT22;18965;52.242;20.886;2022-09-03T00:19:54;12.80;62.90
32524;DHT22;18965;52.242;20.886;2022-09-03T00:22:25;12.80;63.10
32524;DHT22;18965;52.242;20.886;2022-09-03T00:24:53;12.70;63.20
32524;DHT22;18965;52.242;20.886;2022-09-03T00:27:24;12.70;63.20
32524;DHT22;18965;52.242;20.886;2022-09-03T00:30:01;12.70;63.30
32524;DHT22;18965;52.242;20.886;2022-09-03T00:32:57;12.70;63.50
32524;DHT22;18965;52.242;20.886;2022-09-03T00:35:36;12.60;63.50
32524;DHT22;18965;52.242;20.886;2022-09-03T00:38:04;12.60;63.40
32524;DHT22;18965;52.242;20.886;2022-09-03T00:40:55;12.60;63.40
32524;DHT22;18965;52.242;20.886;2022-09-03T00:48:54;12.50;63.50
32524;DHT22;18965;52.242;20.886;2022-09-03T00:51:47;12.50;63.70
32524;DHT22;18965;52.242;20.886;2022-09-03T00:54:42;12.50;63.80
32524;DHT22;18965;52.242;20.886;2022-09-03T01:00:11;12.40;63.70
32524;DHT22;18965;52.242;20.886;2022-09-03T01:16:32;12.30;64.20
32524;DHT22;18965;52.242;20.886;2022-09-03T01:30:13;12.20;64.20
32524;DHT22;18965;52.242;20.886;2022-09-03T01:33:50;12.20;64.20
32524;DHT22;18965;52.242;20.886;2022-09-03T01:41:26;12.10;64.50
32524;DHT22;18965;52.242;20.886;2022-09-03T01:46:55;12.10;64.50
32524;DHT22;18965;52.242;20.886;2022-09-03T01:49:43;12.00;64.50
32524;DHT22;18965;52.242;20.886;2022-09-03T01:52:21;12.00;64.50
32524;DHT22;18965;52.242;20.886;2022-09-03T01:55:46;12.00;64.40
32524;DHT22;18965;52.242;20.886;2022-09-03T01:57:51;12.00;64.50
32524;DHT22;18965;52.242;20.886;2022-09-03T02:00:21;11.90;64.50
32524;DHT22;18965;52.242;20.886;2022-09-03T02:02:49;11.90;64.60
32524;DHT22;18965;52.242;20.886;2022-09-03T02:05:26;11.90;64.60
32524;DHT22;18965;52.242;20.886;2022-09-03T02:13:05;11.80;64.70
32524;DHT22;18965;52.242;20.886;2022-09-03T02:15:32;11.80;64.90
32524;DHT22;18965;52.242;20.886;2022-09-03T02:18:04;11.80;64.70
32524;DHT22;18965;52.242;20.886;2022-09-03T02:20:31;11.80;64.80
32524;DHT22;18965;52.242;20.886;2022-09-03T02:22:58;11.80;64.90
32524;DHT22;18965;52.242;20.886;2022-09-03T02:25:29;11.70;64.80
32524;DHT22;18965;52.242;20.886;2022-09-03T02:27:57;11.70;65.00
32524;DHT22;18965;52.242;20.886;2022-09-03T02:30:23;11.70;65.00
32524;DHT22;18965;52.242;20.886;2022-09-03T02:32:49;11.70;65.10
32524;DHT22;18965;52.242;20.886;2022-09-03T02:35:15;11.70;65.20
32524;DHT22;18965;52.242;20.886;2022-09-03T02:37:40;11.60;65.20
32524;DHT22;18965;52.242;20.886;2022-09-03T02:40:07;11.60;65.20
32524;DHT22;18965;52.242;20.886;2022-09-03T02:42:35;11.60;65.30
32524;DHT22;18965;52.242;20.886;2022-09-03T02:45:17;11.60;65.50
32524;DHT22;18965;52.242;20.886;2022-09-03T02:47:47;11.50;65.70
32524;DHT22;18965;52.242;20.886;2022-09-03T02:50:14;11.50;65.40
32524;DHT22;18965;52.242;20.886;2022-09-03T02:52:40;11.50;65.40
32524;DHT22;18965;52.242;20.886;2022-09-03T02:55:06;11.50;65.50
32524;DHT22;18965;52.242;20.886;2022-09-03T02:57:32;11.50;65.50
32524;DHT22;18965;52.242;20.886;2022-09-03T02:59:57;11.40;65.70
32524;DHT22;18965;52.242;20.886;2022-09-03T03:02:23;11.40;65.60
32524;DHT22;18965;52.242;20.886;2022-09-03T03:04:49;11.50;65.70
32524;DHT22;18965;52.242;20.886;2022-09-03T03:07:15;11.40;65.80
32524;DHT22;18965;52.242;20.886;2022-09-03T03:09:40;11.40;65.80
32524;DHT22;18965;52.242;20.886;2022-09-03T03:12:06;11.40;65.90
32524;DHT22;18965;52.242;20.886;2022-09-03T03:14:34;11.30;65.80
32524;DHT22;18965;52.242;20.886;2022-09-03T03:17:00;11.40;65.90
32524;DHT22;18965;52.242;20.886;2022-09-03T03:19:25;11.30;66.00
32524;DHT22;18965;52.242;20.886;2022-09-03T03:21:51;11.30;66.00
32524;DHT22;18965;52.242;20.886;2022-09-03T03:24:17;11.30;66.10
32524;DHT22;18965;52.242;20.886;2022-09-03T03:26:42;11.30;66.20
32524;DHT22;18965;52.242;20.886;2022-09-03T03:29:13;11.30;66.30
32524;DHT22;18965;52.242;20.886;2022-09-03T03:31:39;11.30;66.30
32524;DHT22;18965;52.242;20.886;2022-09-03T03:34:05;11.30;66.30
32524;DHT22;18965;52.242;20.886;2022-09-03T03:36:32;11.30;66.40
32524;DHT22;18965;52.242;20.886;2022-09-03T03:38:59;11.30;66.50
32524;DHT22;18965;52.242;20.886;2022-09-03T03:41:33;11.30;66.50
32524;DHT22;18965;52.242;20.886;2022-09-03T03:44:04;11.30;66.50
32524;DHT22;18965;52.242;20.886;2022-09-03T03:46:33;11.30;66.60
32524;DHT22;18965;52.242;20.886;2022-09-03T03:48:59;11.30;66.60
32524;DHT22;18965;52.242;20.886;2022-09-03T03:51:25;11.30;66.60
32524;DHT22;18965;52.242;20.886;2022-09-03T03:53:57;11.30;66.60
32524;DHT22;18965;52.242;20.886;2022-09-03T03:56:24;11.30;66.70
32524;DHT22;18965;52.242;20.886;2022-09-03T03:58:51;11.30;66.70
32524;DHT22;18965;52.242;20.886;2022-09-03T04:01:19;11.20;66.70
32524;DHT22;18965;52.242;20.886;2022-09-03T04:03:45;11.20;66.80
32524;DHT22;18965;52.242;20.886;2022-09-03T04:06:13;11.20;67.00
32524;DHT22;18965;52.242;20.886;2022-09-03T04:08:41;11.20;67.00
32524;DHT22;18965;52.242;20.886;2022-09-03T04:11:09;11.10;67.00
32524;DHT22;18965;52.242;20.886;2022-09-03T04:13:37;11.10;67.20
32524;DHT22;18965;52.242;20.886;2022-09-03T04:16:12;11.10;67.20
32524;DHT22;18965;52.242;20.886;2022-09-03T04:18:38;11.10;67.30
32524;DHT22;18965;52.242;20.886;2022-09-03T04:21:09;11.10;67.40
32524;DHT22;18965;52.242;20.886;2022-09-03T04:23:37;11.10;67.50
32524;DHT22;18965;52.242;20.886;2022-09-03T04:26:04;11.10;67.70
32524;DHT22;18965;52.242;20.886;2022-09-03T04:28:31;11.00;67.60
32524;DHT22;18965;52.242;20.886;2022-09-03T04:31:04;11.00;67.80
32524;DHT22;18965;52.242;20.886;2022-09-03T04:33:30;11.00;67.70
32524;DHT22;18965;52.242;20.886;2022-09-03T04:36:11;11.10;67.80
32524;DHT22;18965;52.242;20.886;2022-09-03T04:38:39;11.10;68.00
32524;DHT22;18965;52.242;20.886;2022-09-03T04:41:07;11.10;67.90
32524;DHT22;18965;52.242;20.886;2022-09-03T04:43:33;11.10;67.80
32524;DHT22;18965;52.242;20.886;2022-09-03T04:46:01;11.10;67.80
32524;DHT22;18965;52.242;20.886;2022-09-03T04:48:28;11.10;67.90
32524;DHT22;18965;52.242;20.886;2022-09-03T04:50:54;11.20;68.00
32524;DHT22;18965;52.242;20.886;2022-09-03T04:53:30;11.20;67.80
32524;DHT22;18965;52.242;20.886;2022-09-03T04:55:55;11.20;67.80
32524;DHT22;18965;52.242;20.886;2022-09-03T04:58:21;11.30;67.80
32524;DHT22;18965;52.242;20.886;2022-09-03T05:00:47;11.30;67.80
32524;DHT22;18965;52.242;20.886;2022-09-03T05:03:13;11.40;67.70
32524;DHT22;18965;52.242;20.886;2022-09-03T05:05:39;11.40;67.60
32524;DHT22;18965;52.242;20.886;2022-09-03T05:08:04;11.50;67.60
32524;DHT22;18965;52.242;20.886;2022-09-03T05:10:31;11.50;67.60
32524;DHT22;18965;52.242;20.886;2022-09-03T05:13:02;11.60;67.50
32524;DHT22;18965;52.242;20.886;2022-09-03T05:15:30;11.70;67.50
32524;DHT22;18965;52.242;20.886;2022-09-03T05:17:59;11.70;67.30
32524;DHT22;18965;52.242;20.886;2022-09-03T05:20:27;11.80;67.30
32524;DHT22;18965;52.242;20.886;2022-09-03T05:23:00;11.90;67.30
32524;DHT22;18965;52.242;20.886;2022-09-03T05:25:27;12.00;67.10
32524;DHT22;18965;52.242;20.886;2022-09-03T05:27:53;12.00;66.80
32524;DHT22;18965;52.242;20.886;2022-09-03T05:30:19;12.10;66.70
32524;DHT22;18965;52.242;20.886;2022-09-03T05:32:47;12.20;66.60
32524;DHT22;18965;52.242;20.886;2022-09-03T05:35:13;12.30;66.50
32524;DHT22;18965;52.242;20.886;2022-09-03T05:37:39;12.40;66.50
32524;DHT22;18965;52.242;20.886;2022-09-03T05:40:05;12.50;67.00
32524;DHT22;18965;52.242;20.886;2022-09-03T05:42:31;12.60;66.10
32524;DHT22;18965;52.242;20.886;2022-09-03T05:44:59;12.70;66.00
32524;DHT22;18965;52.242;20.886;2022-09-03T05:47:25;12.80;65.60
32524;DHT22;18965;52.242;20.886;2022-09-03T05:49:51;12.90;65.60
32524;DHT22;18965;52.242;20.886;2022-09-03T05:52:16;13.00;65.80
32524;DHT22;18965;52.242;20.886;2022-09-03T05:54:44;13.20;65.60
32524;DHT22;18965;52.242;20.886;2022-09-03T05:57:10;13.30;65.20
32524;DHT22;18965;52.242;20.886;2022-09-03T05:59:36;13.40;65.00
32524;DHT22;18965;52.242;20.886;2022-09-03T06:02:02;13.50;64.50
32524;DHT22;18965;52.242;20.886;2022-09-03T06:04:28;13.60;64.20
32524;DHT22;18965;52.242;20.886;2022-09-03T06:06:55;13.70;64.00
32524;DHT22;18965;52.242;20.886;2022-09-03T06:09:21;13.80;63.80
32524;DHT22;18965;52.242;20.886;2022-09-03T06:11:47;13.90;63.70
32524;DHT22;18965;52.242;20.886;2022-09-03T06:14:14;14.00;63.10
32524;DHT22;18965;52.242;20.886;2022-09-03T06:16:45;14.00;62.80
32524;DHT22;18965;52.242;20.886;2022-09-03T06:19:13;14.10;62.50
32524;DHT22;18965;52.242;20.886;2022-09-03T06:21:43;14.20;62.50
32524;DHT22;18965;52.242;20.886;2022-09-03T06:24:10;14.20;62.50
32524;DHT22;18965;52.242;20.886;2022-09-03T06:26:37;14.30;62.00
32524;DHT22;18965;52.242;20.886;2022-09-03T06:29:03;14.40;61.80
32524;DHT22;18965;52.242;20.886;2022-09-03T06:31:29;14.50;61.80
32524;DHT22;18965;52.242;20.886;2022-09-03T06:33:54;14.60;61.80
32524;DHT22;18965;52.242;20.886;2022-09-03T06:36:21;14.70;61.60
32524;DHT22;18965;52.242;20.886;2022-09-03T06:38:51;14.80;61.40
32524;DHT22;18965;52.242;20.886;2022-09-03T06:41:19;14.90;61.40
32524;DHT22;18965;52.242;20.886;2022-09-03T06:43:53;15.00;61.10
32524;DHT22;18965;52.242;20.886;2022-09-03T06:46:22;15.10;60.90
32524;DHT22;18965;52.242;20.886;2022-09-03T06:48:49;15.20;60.40
32524;DHT22;18965;52.242;20.886;2022-09-03T06:51:23;15.30;59.80
32524;DHT22;18965;52.242;20.886;2022-09-03T06:53:51;15.40;59.70
32524;DHT22;18965;52.242;20.886;2022-09-03T06:56:20;15.40;59.50
32524;DHT22;18965;52.242;20.886;2022-09-03T06:58:53;15.50;59.10
32524;DHT22;18965;52.242;20.886;2022-09-03T07:01:21;15.60;59.50
32524;DHT22;18965;52.242;20.886;2022-09-03T07:03:52;15.70;59.40
32524;DHT22;18965;52.242;20.886;2022-09-03T07:06:20;15.90;59.40
32524;DHT22;18965;52.242;20.886;2022-09-03T07:08:47;16.00;59.00
32524;DHT22;18965;52.242;20.886;2022-09-03T07:11:15;16.10;58.60
32524;DHT22;18965;52.242;20.886;2022-09-03T07:13:44;16.30;58.40
32524;DHT22;18965;52.242;20.886;2022-09-03T07:16:13;16.40;58.30
32524;DHT22;18965;52.242;20.886;2022-09-03T07:18:39;16.50;57.70
32524;DHT22;18965;52.242;20.886;2022-09-03T07:21:07;16.60;57.70
32524;DHT22;18965;52.242;20.886;2022-09-03T07:23:34;16.80;56.70
32524;DHT22;18965;52.242;20.886;2022-09-03T07:26:03;16.90;56.80
32524;DHT22;18965;52.242;20.886;2022-09-03T07:28:29;17.00;56.50
32524;DHT22;18965;52.242;20.886;2022-09-03T07:31:04;17.10;56.10
32524;DHT22;18965;52.242;20.886;2022-09-03T07:33:31;17.20;56.20
32524;DHT22;18965;52.242;20.886;2022-09-03T07:36:08;17.30;56.10
32524;DHT22;18965;52.242;20.886;2022-09-03T07:38:35;17.50;55.50
32524;DHT22;18965;52.242;20.886;2022-09-03T07:41:05;17.60;55.50
32524;DHT22;18965;52.242;20.886;2022-09-03T07:43:43;17.70;54.90
32524;DHT22;18965;52.242;20.886;2022-09-03T07:46:12;17.80;54.00
32524;DHT22;18965;52.242;20.886;2022-09-03T07:48:41;17.90;53.70
32524;DHT22;18965;52.242;20.886;2022-09-03T07:51:08;18.00;53.20
32524;DHT22;18965;52.242;20.886;2022-09-03T07:53:34;18.10;53.30
32524;DHT22;18965;52.242;20.886;2022-09-03T07:56:04;18.20;52.30
32524;DHT22;18965;52.242;20.886;2022-09-03T07:58:31;18.30;52.60
32524;DHT22;18965;52.242;20.886;2022-09-03T08:00:58;18.40;52.30
32524;DHT22;18965;52.242;20.886;2022-09-03T08:03:28;18.50;52.10
32524;DHT22;18965;52.242;20.886;2022-09-03T08:06:00;18.60;52.00
32524;DHT22;18965;52.242;20.886;2022-09-03T08:08:26;18.70;51.40
32524;DHT22;18965;52.242;20.886;2022-09-03T08:10:52;18.80;51.00
32524;DHT22;18965;52.242;20.886;2022-09-03T08:13:18;18.80;51.10
32524;DHT22;18965;52.242;20.886;2022-09-03T08:15:53;18.90;51.20
32524;DHT22;18965;52.242;20.886;2022-09-03T08:18:19;19.00;50.20
32524;DHT22;18965;52.242;20.886;2022-09-03T08:20:45;19.10;49.60
32524;DHT22;18965;52.242;20.886;2022-09-03T08:23:11;19.20;49.20
32524;DHT22;18965;52.242;20.886;2022-09-03T08:25:38;19.20;48.70
32524;DHT22;18965;52.242;20.886;2022-09-03T08:28:13;19.30;48.20
32524;DHT22;18965;52.242;20.886;2022-09-03T08:30:40;19.30;47.60
32524;DHT22;18965;52.242;20.886;2022-09-03T08:33:06;19.40;46.60
32524;DHT22;18965;52.242;20.886;2022-09-03T08:35:32;19.50;47.20
32524;DHT22;18965;52.242;20.886;2022-09-03T08:37:59;19.50;46.70
32524;DHT22;18965;52.242;20.886;2022-09-03T08:40:31;19.60;46.50
32524;DHT22;18965;52.242;20.886;2022-09-03T08:43:23;19.70;46.60
32524;DHT22;18965;52.242;20.886;2022-09-03T08:45:51;19.70;45.10
32524;DHT22;18965;52.242;20.886;2022-09-03T08:48:19;19.80;46.20
32524;DHT22;18965;52.242;20.886;2022-09-03T08:50:49;19.90;45.10
32524;DHT22;18965;52.242;20.886;2022-09-03T08:53:44;20.00;45.30
32524;DHT22;18965;52.242;20.886;2022-09-03T08:56:35;20.00;44.40
32524;DHT22;18965;52.242;20.886;2022-09-03T08:59:02;20.10;44.00
32524;DHT22;18965;52.242;20.886;2022-09-03T09:06:59;20.20;42.30
32524;DHT22;18965;52.242;20.886;2022-09-03T09:12:28;20.30;42.50
32524;DHT22;18965;52.242;20.886;2022-09-03T09:21:03;20.40;41.90
32524;DHT22;18965;52.242;20.886;2022-09-03T09:23:49;20.40;42.00
32524;DHT22;18965;52.242;20.886;2022-09-03T09:26:20;20.40;41.00
32524;DHT22;18965;52.242;20.886;2022-09-03T09:29:08;20.40;41.60
32524;DHT22;18965;52.242;20.886;2022-09-03T09:31:58;20.50;41.70
32524;DHT22;18965;52.242;20.886;2022-09-03T09:34:33;20.50;42.80
32524;DHT22;18965;52.242;20.886;2022-09-03T09:37:07;20.60;41.70
32524;DHT22;18965;52.242;20.886;2022-09-03T09:39:34;20.60;41.50
32524;DHT22;18965;52.242;20.886;2022-09-03T09:42:05;20.60;41.40
32524;DHT22;18965;52.242;20.886;2022-09-03T09:44:45;20.60;41.20
32524;DHT22;18965;52.242;20.886;2022-09-03T09:47:30;20.60;40.80
32524;DHT22;18965;52.242;20.886;2022-09-03T09:50:00;20.60;40.90
32524;DHT22;18965;52.242;20.886;2022-09-03T09:52:30;20.70;41.50
32524;DHT22;18965;52.242;20.886;2022-09-03T09:55:15;20.80;42.00
32524;DHT22;18965;52.242;20.886;2022-09-03T09:57:43;20.80;41.80
32524;DHT22;18965;52.242;20.886;2022-09-03T10:00:19;20.80;41.70
32524;DHT22;18965;52.242;20.886;2022-09-03T10:02:53;20.80;41.40
32524;DHT22;18965;52.242;20.886;2022-09-03T10:05:24;20.90;41.60
32524;DHT22;18965;52.242;20.886;2022-09-03T10:08:19;21.00;41.40
32524;DHT22;18965;52.242;20.886;2022-09-03T10:10:49;21.10;41.80
32524;DHT22;18965;52.242;20.886;2022-09-03T10:13:22;21.10;40.60
32524;DHT22;18965;52.242;20.886;2022-09-03T10:16:00;21.20;40.10
32524;DHT22;18965;52.242;20.886;2022-09-03T10:18:38;21.20;40.10
32524;DHT22;18965;52.242;20.886;2022-09-03T10:21:06;21.20;40.60
32524;DHT22;18965;52.242;20.886;2022-09-03T10:24:03;21.20;41.20
32524;DHT22;18965;52.242;20.886;2022-09-03T10:26:41;21.30;41.20
32524;DHT22;18965;52.242;20.886;2022-09-03T10:29:10;21.30;40.80
32524;DHT22;18965;52.242;20.886;2022-09-03T10:34:40;21.40;40.60
32524;DHT22;18965;52.242;20.886;2022-09-03T10:40:28;21.50;39.40
32524;DHT22;18965;52.242;20.886;2022-09-03T10:46:24;21.50;38.60
32524;DHT22;18965;52.242;20.886;2022-09-03T10:49:15;21.50;39.10
32524;DHT22;18965;52.242;20.886;2022-09-03T10:55:18;21.60;38.90
32524;DHT22;18965;52.242;20.886;2022-09-03T11:00:54;21.60;39.50
32524;DHT22;18965;52.242;20.886;2022-09-03T11:07:03;21.70;40.00
32524;DHT22;18965;52.242;20.886;2022-09-03T11:09:42;21.70;39.20
32524;DHT22;18965;52.242;20.886;2022-09-03T11:12:20;21.70;39.60
32524;DHT22;18965;52.242;20.886;2022-09-03T11:15:11;21.70;40.10
32524;DHT22;18965;52.242;20.886;2022-09-03T11:17:49;21.80;40.00
32524;DHT22;18965;52.242;20.886;2022-09-03T11:20:24;21.80;38.30
32524;DHT22;18965;52.242;20.886;2022-09-03T11:22:56;21.80;38.90
32524;DHT22;18965;52.242;20.886;2022-09-03T11:25:32;21.80;38.50
32524;DHT22;18965;52.242;20.886;2022-09-03T11:30:51;21.90;38.50
32524;DHT22;18965;52.242;20.886;2022-09-03T11:33:55;21.90;37.90
32524;DHT22;18965;52.242;20.886;2022-09-03T11:36:39;21.90;37.80
32524;DHT22;18965;52.242;20.886;2022-09-03T11:39:33;22.00;37.60
32524;DHT22;18965;52.242;20.886;2022-09-03T11:42:02;21.90;37.60
32524;DHT22;18965;52.242;20.886;2022-09-03T11:44:50;22.00;37.80
32524;DHT22;18965;52.242;20.886;2022-09-03T11:50:30;22.00;37.30
32524;DHT22;18965;52.242;20.886;2022-09-03T11:53:23;22.10;37.30
32524;DHT22;18965;52.242;20.886;2022-09-03T11:55:53;22.00;36.10
32524;DHT22;18965;52.242;20.886;2022-09-03T11:58:32;22.00;36.50
32524;DHT22;18965;52.242;20.886;2022-09-03T12:01:01;22.00;35.30
32524;DHT22;18965;52.242;20.886;2022-09-03T12:03:43;22.00;35.50
32524;DHT22;18965;52.242;20.886;2022-09-03T12:18:11;22.10;36.30
32524;DHT22;18965;52.242;20.886;2022-09-03T12:21:05;22.10;36.40
32524;DHT22;18965;52.242;20.886;2022-09-03T12:23:47;22.10;35.70
32524;DHT22;18965;52.242;20.886;2022-09-03T12:26:22;22.10;35.20
32524;DHT22;18965;52.242;20.886;2022-09-03T12:28:54;22.10;35.80
32524;DHT22;18965;52.242;20.886;2022-09-03T12:31:28;22.10;36.50
32524;DHT22;18965;52.242;20.886;2022-09-03T12:36:34;22.20;36.70
32524;DHT22;18965;52.242;20.886;2022-09-03T12:42:01;22.30;36.30
32524;DHT22;18965;52.242;20.886;2022-09-03T12:47:11;22.30;35.10
32524;DHT22;18965;52.242;20.886;2022-09-03T12:49:39;22.30;35.50
32524;DHT22;18965;52.242;20.886;2022-09-03T12:54:51;22.30;35.10
32524;DHT22;18965;52.242;20.886;2022-09-03T12:57:22;22.30;35.30
32524;DHT22;18965;52.242;20.886;2022-09-03T12:59:52;22.30;36.00
32524;DHT22;18965;52.242;20.886;2022-09-03T13:02:29;22.30;35.30
32524;DHT22;18965;52.242;20.886;2022-09-03T13:04:59;22.30;35.30
32524;DHT22;18965;52.242;20.886;2022-09-03T13:07:27;22.40;35.90
32524;DHT22;18965;52.242;20.886;2022-09-03T13:10:00;22.40;35.80
32524;DHT22;18965;52.242;20.886;2022-09-03T13:12:45;22.50;36.10
32524;DHT22;18965;52.242;20.886;2022-09-03T13:15:21;22.50;34.50
32524;DHT22;18965;52.242;20.886;2022-09-03T13:17:56;22.50;35.60
32524;DHT22;18965;52.242;20.886;2022-09-03T13:31:34;22.50;35.30
32524;DHT22;18965;52.242;20.886;2022-09-03T13:36:55;22.50;35.90
32524;DHT22;18965;52.242;20.886;2022-09-03T13:39:59;22.50;36.00
32524;DHT22;18965;52.242;20.886;2022-09-03T13:42:41;22.50;36.10
32524;DHT22;18965;52.242;20.886;2022-09-03T13:52:04;22.50;36.20
32524;DHT22;18965;52.242;20.886;2022-09-03T13:54:27;22.50;36.30
32524;DHT22;18965;52.242;20.886;2022-09-03T13:57:19;22.50;36.50
32524;DHT22;18965;52.242;20.886;2022-09-03T14:05:09;22.50;35.00
32524;DHT22;18965;52.242;20.886;2022-09-03T14:12:48;22.50;36.20
32524;DHT22;18965;52.242;20.886;2022-09-03T14:15:26;22.40;36.20
32524;DHT22;18965;52.242;20.886;2022-09-03T14:20:56;22.40;35.80
32524;DHT22;18965;52.242;20.886;2022-09-03T14:26:17;22.40;35.70
32524;DHT22;18965;52.242;20.886;2022-09-03T14:28:57;22.40;35.70
32524;DHT22;18965;52.242;20.886;2022-09-03T14:47:53;22.20;35.30
32524;DHT22;18965;52.242;20.886;2022-09-03T15:12:44;22.20;35.60
32524;DHT22;18965;52.242;20.886;2022-09-03T15:15:29;22.20;35.60
32524;DHT22;18965;52.242;20.886;2022-09-03T15:26:44;22.10;36.60
32524;DHT22;18965;52.242;20.886;2022-09-03T15:29:47;22.00;36.80
32524;DHT22;18965;52.242;20.886;2022-09-03T15:32:25;22.00;37.10
32524;DHT22;18965;52.242;20.886;2022-09-03T15:37:46;21.80;37.30
32524;DHT22;18965;52.242;20.886;2022-09-03T15:42:43;21.70;37.10
32524;DHT22;18965;52.242;20.886;2022-09-03T15:45:51;21.60;36.60
32524;DHT22;18965;52.242;20.886;2022-09-03T15:49:09;21.60;36.10
32524;DHT22;18965;52.242;20.886;2022-09-03T15:52:24;21.60;36.40
32524;DHT22;18965;52.242;20.886;2022-09-03T15:54:35;21.50;36.90
32524;DHT22;18965;52.242;20.886;2022-09-03T15:57:20;21.50;36.90
32524;DHT22;18965;52.242;20.886;2022-09-03T16:00:07;21.40;37.20
32524;DHT22;18965;52.242;20.886;2022-09-03T16:05:47;21.40;36.60
32524;DHT22;18965;52.242;20.886;2022-09-03T16:09:03;21.30;37.10
32524;DHT22;18965;52.242;20.886;2022-09-03T16:11:38;21.30;37.20
32524;DHT22;18965;52.242;20.886;2022-09-03T16:14:20;21.20;37.00
32524;DHT22;18965;52.242;20.886;2022-09-03T16:17:07;21.20;37.40
32524;DHT22;18965;52.242;20.886;2022-09-03T16:19:45;21.10;37.50
32524;DHT22;18965;52.242;20.886;2022-09-03T16:22:31;21.10;37.10
32524;DHT22;18965;52.242;20.886;2022-09-03T16:25:11;21.10;36.70
32524;DHT22;18965;52.242;20.886;2022-09-03T17:01:46;20.50;38.70
32524;DHT22;18965;52.242;20.886;2022-09-03T17:04:21;20.40;38.80
32524;DHT22;18965;52.242;20.886;2022-09-03T17:07:02;20.40;39.00
32524;DHT22;18965;52.242;20.886;2022-09-03T17:15:27;20.20;39.30
32524;DHT22;18965;52.242;20.886;2022-09-03T17:20:49;20.00;39.70
32524;DHT22;18965;52.242;20.886;2022-09-03T17:29:08;19.80;40.00
32524;DHT22;18965;52.242;20.886;2022-09-03T17:31:47;19.80;40.20
32524;DHT22;18965;52.242;20.886;2022-09-03T17:37:39;19.70;40.40
32524;DHT22;18965;52.242;20.886;2022-09-03T17:39:52;19.60;40.60
32524;DHT22;18965;52.242;20.886;2022-09-03T17:50:57;19.30;41.00
32524;DHT22;18965;52.242;20.886;2022-09-03T17:53:46;19.30;41.20
32524;DHT22;18965;52.242;20.886;2022-09-03T17:56:25;19.20;41.50
32524;DHT22;18965;52.242;20.886;2022-09-03T17:59:01;19.10;41.60
32524;DHT22;18965;52.242;20.886;2022-09-03T18:01:44;19.10;41.90
32524;DHT22;18965;52.242;20.886;2022-09-03T18:04:40;19.00;42.00
32524;DHT22;18965;52.242;20.886;2022-09-03T18:07:28;19.00;42.30
32524;DHT22;18965;52.242;20.886;2022-09-03T18:10:15;18.80;42.50
32524;DHT22;18965;52.242;20.886;2022-09-03T18:15:48;18.70;42.80
32524;DHT22;18965;52.242;20.886;2022-09-03T18:18:29;18.70;42.80
32524;DHT22;18965;52.242;20.886;2022-09-03T18:21:04;18.60;43.10
32524;DHT22;18965;52.242;20.886;2022-09-03T18:26:58;18.50;43.80
32524;DHT22;18965;52.242;20.886;2022-09-03T18:30:00;18.50;43.40
32524;DHT22;18965;52.242;20.886;2022-09-03T18:32:45;18.40;43.40
32524;DHT22;18965;52.242;20.886;2022-09-03T18:35:30;18.30;43.70
32524;DHT22;18965;52.242;20.886;2022-09-03T18:38:21;18.30;43.90
32524;DHT22;18965;52.242;20.886;2022-09-03T18:50:48;18.00;44.40
32524;DHT22;18965;52.242;20.886;2022-09-03T18:56:44;17.90;44.90
32524;DHT22;18965;52.242;20.886;2022-09-03T19:05:40;17.80;46.20
32524;DHT22;18965;52.242;20.886;2022-09-03T19:08:40;17.70;46.30
32524;DHT22;18965;52.242;20.886;2022-09-03T19:11:30;17.70;46.70
32524;DHT22;18965;52.242;20.886;2022-09-03T19:17:34;17.50;47.00
32524;DHT22;18965;52.242;20.886;2022-09-03T19:20:31;17.50;47.10
32524;DHT22;18965;52.242;20.886;2022-09-03T19:23:18;17.40;47.80
32524;DHT22;18965;52.242;20.886;2022-09-03T19:29:06;17.20;48.20
32524;DHT22;18965;52.242;20.886;2022-09-03T19:32:02;17.10;48.10
32524;DHT22;18965;52.242;20.886;2022-09-03T19:37:48;17.00;48.20
32524;DHT22;18965;52.242;20.886;2022-09-03T19:40:53;17.00;48.20
32524;DHT22;18965;52.242;20.886;2022-09-03T19:44:23;16.90;48.30
32524;DHT22;18965;52.242;20.886;2022-09-03T19:47:21;16.90;48.60
32524;DHT22;18965;52.242;20.886;2022-09-03T19:50:23;16.90;48.60
32524;DHT22;18965;52.242;20.886;2022-09-03T19:53:17;16.80;49.00
32524;DHT22;18965;52.242;20.886;2022-09-03T19:56:10;16.80;48.90
32524;DHT22;18965;52.242;20.886;2022-09-03T19:58:59;16.80;49.00
32524;DHT22;18965;52.242;20.886;2022-09-03T20:01:45;16.70;48.80
32524;DHT22;18965;52.242;20.886;2022-09-03T20:04:56;16.70;48.90
32524;DHT22;18965;52.242;20.886;2022-09-03T20:07:41;16.70;49.30
32524;DHT22;18965;52.242;20.886;2022-09-03T20:10:26;16.70;49.20
32524;DHT22;18965;52.242;20.886;2022-09-03T20:13:05;16.70;49.20
32524;DHT22;18965;52.242;20.886;2022-09-03T20:21:34;16.70;49.20
32524;DHT22;18965;52.242;20.886;2022-09-03T20:29:59;16.70;49.20
32524;DHT22;18965;52.242;20.886;2022-09-03T20:36:10;16.70;49.20
32524;DHT22;18965;52.242;20.886;2022-09-03T20:41:22;16.60;49.10
32524;DHT22;18965;52.242;20.886;2022-09-03T20:57:37;16.60;49.00
32524;DHT22;18965;52.242;20.886;2022-09-03T21:00:12;16.60;49.00
32524;DHT22;18965;52.242;20.886;2022-09-03T21:02:59;16.60;49.00
32524;DHT22;18965;52.242;20.886;2022-09-03T21:05:31;16.60;49.00
32524;DHT22;18965;52.242;20.886;2022-09-03T21:08:17;16.60;49.20
32524;DHT22;18965;52.242;20.886;2022-09-03T21:10:56;16.60;49.20
32524;DHT22;18965;52.242;20.886;2022-09-03T21:13:38;16.50;49.10
32524;DHT22;18965;52.242;20.886;2022-09-03T21:21:54;16.50;49.10
32524;DHT22;18965;52.242;20.886;2022-09-03T21:24:40;16.50;49.20
32524;DHT22;18965;52.242;20.886;2022-09-03T21:27:15;16.50;49.20
32524;DHT22;18965;52.242;20.886;2022-09-03T21:30:02;16.50;49.20
32524;DHT22;18965;52.242;20.886;2022-09-03T21:32:40;16.40;49.20
32524;DHT22;18965;52.242;20.886;2022-09-03T21:35:30;16.40;49.20
32524;DHT22;18965;52.242;20.886;2022-09-03T21:40:28;16.40;49.40
32524;DHT22;18965;52.242;20.886;2022-09-03T21:48:34;16.30;49.60